sensor_id;sensor_type;location;lat;lon;timestamp;pressure;altitude;pressure_sealevel;temperature;humidity
66703;BME280;60933;46.398;-63.798;2023-02-12T00:01:55;101805.41;;;-10.98;70.54
66703;BME280;60933;46.398;-63.798;2023-02-12T00:04:21;101808.53;;;-11.01;71.00
66703;BME280;60933;46.398;-63.798;2023-02-12T00:06:47;101813.50;;;-11.01;71.56
66703;BME280;60933;46.398;-63.798;2023-02-12T00:09:13;101826.22;;;-10.98;71.95
66703;BME280;60933;46.398;-63.798;2023-02-12T00:11:39;101821.25;;;-10.98;71.21
66703;BME280;60933;46.398;-63.798;2023-02-12T00:14:05;101824.59;;;-10.97;71.56
66703;BME280;60933;46.398;-63.798;2023-02-12T00:16:31;101829.59;;;-10.97;71.40
66703;BME280;60933;46.398;-63.798;2023-02-12T00:18:57;101819.13;;;-11.03;71.13
66703;BME280;60933;46.398;-63.798;2023-02-12T00:21:24;101831.47;;;-11.05;71.02
66703;BME280;60933;46.398;-63.798;2023-02-12T00:23:50;101835.47;;;-11.07;71.35
66703;BME280;60933;46.398;-63.798;2023-02-12T00:26:17;101847.69;;;-11.10;71.47
66703;BME280;60933;46.398;-63.798;2023-02-12T00:28:44;101857.91;;;-11.07;71.74
66703;BME280;60933;46.398;-63.798;2023-02-12T00:31:16;101858.53;;;-11.09;71.09
66703;BME280;60933;46.398;-63.798;2023-02-12T00:33:43;101862.63;;;-11.10;71.29
66703;BME280;60933;46.398;-63.798;2023-02-12T00:36:14;101863.78;;;-11.17;71.43
66703;BME280;60933;46.398;-63.798;2023-02-12T00:38:41;101860.16;;;-11.20;71.35
66703;BME280;60933;46.398;-63.798;2023-02-12T00:41:06;101872.50;;;-11.22;71.80
66703;BME280;60933;46.398;-63.798;2023-02-12T00:43:32;101856.19;;;-11.28;71.51
66703;BME280;60933;46.398;-63.798;2023-02-12T00:45:58;101861.28;;;-11.27;71.99
66703;BME280;60933;46.398;-63.798;2023-02-12T00:48:25;101850.94;;;-11.32;72.45
66703;BME280;60933;46.398;-63.798;2023-02-12T00:50:51;101845.44;;;-11.38;72.13
66703;BME280;60933;46.398;-63.798;2023-02-12T00:53:17;101854.16;;;-11.33;72.62
66703;BME280;60933;46.398;-63.798;2023-02-12T00:55:44;101851.94;;;-11.30;73.20
66703;BME280;60933;46.398;-63.798;2023-02-12T00:58:10;101852.06;;;-11.28;73.70
66703;BME280;60933;46.398;-63.798;2023-02-12T01:00:37;101847.69;;;-11.31;73.46
66703;BME280;60933;46.398;-63.798;2023-02-12T01:03:04;101848.94;;;-11.25;74.21
66703;BME280;60933;46.398;-63.798;2023-02-12T01:05:30;101851.19;;;-11.28;73.73
66703;BME280;60933;46.398;-63.798;2023-02-12T01:07:56;101855.16;;;-11.31;74.13
66703;BME280;60933;46.398;-63.798;2023-02-12T01:10:22;101856.19;;;-11.28;74.24
66703;BME280;60933;46.398;-63.798;2023-02-12T01:12:49;101870.63;;;-11.24;74.10
66703;BME280;60933;46.398;-63.798;2023-02-12T01:15:16;101871.63;;;-11.22;74.43
66703;BME280;60933;46.398;-63.798;2023-02-12T01:17:42;101871.63;;;-11.22;74.52
66703;BME280;60933;46.398;-63.798;2023-02-12T01:20:11;101862.16;;;-11.26;74.80
66703;BME280;60933;46.398;-63.798;2023-02-12T01:22:38;101863.53;;;-11.20;74.50
66703;BME280;60933;46.398;-63.798;2023-02-12T01:25:05;101850.31;;;-11.19;75.06
66703;BME280;60933;46.398;-63.798;2023-02-12T01:27:32;101854.56;;;-11.18;74.94
66703;BME280;60933;46.398;-63.798;2023-02-12T01:29:58;101858.16;;;-11.14;74.91
66703;BME280;60933;46.398;-63.798;2023-02-12T01:32:24;101863.03;;;-11.16;74.46
66703;BME280;60933;46.398;-63.798;2023-02-12T01:34:51;101849.69;;;-11.16;75.00
66703;BME280;60933;46.398;-63.798;2023-02-12T01:37:17;101846.31;;;-11.17;74.25
66703;BME280;60933;46.398;-63.798;2023-02-12T01:39:43;101855.56;;;-11.16;74.96
66703;BME280;60933;46.398;-63.798;2023-02-12T01:42:12;101854.56;;;-11.18;75.03
66703;BME280;60933;46.398;-63.798;2023-02-12T01:44:43;101854.44;;;-11.19;74.80
66703;BME280;60933;46.398;-63.798;2023-02-12T01:47:17;101850.81;;;-11.23;74.36
66703;BME280;60933;46.398;-63.798;2023-02-12T01:49:45;101857.53;;;-11.22;74.61
66703;BME280;60933;46.398;-63.798;2023-02-12T01:52:16;101858.16;;;-11.24;75.22
66703;BME280;60933;46.398;-63.798;2023-02-12T01:54:46;101847.31;;;-11.25;74.89
66703;BME280;60933;46.398;-63.798;2023-02-12T01:57:13;101854.91;;;-11.23;75.49
66703;BME280;60933;46.398;-63.798;2023-02-12T01:59:42;101846.22;;;-11.28;75.08
66703;BME280;60933;46.398;-63.798;2023-02-12T02:02:10;101849.72;;;-11.26;75.19
66703;BME280;60933;46.398;-63.798;2023-02-12T02:04:42;101840.59;;;-11.26;75.58
66703;BME280;60933;46.398;-63.798;2023-02-12T02:07:11;101833.97;;;-11.25;75.81
66703;BME280;60933;46.398;-63.798;2023-02-12T02:09:38;101844.56;;;-11.28;75.68
66703;BME280;60933;46.398;-63.798;2023-02-12T02:12:05;101844.47;;;-11.30;75.65
66703;BME280;60933;46.398;-63.798;2023-02-12T02:14:53;101853.19;;;-11.35;76.00
66703;BME280;60933;46.398;-63.798;2023-02-12T02:32:02;101847.97;;;-11.27;76.71
66703;BME280;60933;46.398;-63.798;2023-02-12T02:34:52;101853.41;;;-11.32;76.45
66703;BME280;60933;46.398;-63.798;2023-02-12T02:37:47;101855.41;;;-11.38;76.55
66703;BME280;60933;46.398;-63.798;2023-02-12T02:40:22;101860.41;;;-11.38;76.86
66703;BME280;60933;46.398;-63.798;2023-02-12T02:42:57;101853.44;;;-11.42;76.42
66703;BME280;60933;46.398;-63.798;2023-02-12T02:45:32;101855.66;;;-11.45;76.72
66703;BME280;60933;46.398;-63.798;2023-02-12T02:48:05;101848.56;;;-11.51;76.80
66703;BME280;60933;46.398;-63.798;2023-02-12T02:50:37;101860.28;;;-11.50;76.30
66703;BME280;60933;46.398;-63.798;2023-02-12T02:53:13;101854.16;;;-11.53;76.89
66703;BME280;60933;46.398;-63.798;2023-02-12T02:55:51;101851.06;;;-11.61;76.80
66703;BME280;60933;46.398;-63.798;2023-02-12T02:58:35;101857.00;;;-11.59;76.37
66703;BME280;60933;46.398;-63.798;2023-02-12T03:01:08;101844.31;;;-11.62;76.21
66703;BME280;60933;46.398;-63.798;2023-02-12T03:03:41;101841.69;;;-11.64;76.73
66703;BME280;60933;46.398;-63.798;2023-02-12T03:06:16;101836.69;;;-11.64;76.77
66703;BME280;60933;46.398;-63.798;2023-02-12T03:08:55;101835.84;;;-11.64;76.70
66703;BME280;60933;46.398;-63.798;2023-02-12T03:11:27;101828.47;;;-11.63;77.48
66703;BME280;60933;46.398;-63.798;2023-02-12T03:14:28;101834.75;;;-11.57;77.30
66703;BME280;60933;46.398;-63.798;2023-02-12T03:16:57;101820.03;;;-11.54;77.02
66703;BME280;60933;46.398;-63.798;2023-02-12T03:19:29;101820.03;;;-11.54;77.34
66703;BME280;60933;46.398;-63.798;2023-02-12T03:22:09;101819.00;;;-11.56;77.67
66703;BME280;60933;46.398;-63.798;2023-02-12T03:25:00;101809.81;;;-11.57;77.43
66703;BME280;60933;46.398;-63.798;2023-02-12T03:27:36;101808.06;;;-11.58;77.57
66703;BME280;60933;46.398;-63.798;2023-02-12T03:30:04;101812.16;;;-11.59;77.36
66703;BME280;60933;46.398;-63.798;2023-02-12T03:40:45;101805.97;;;-11.54;77.82
66703;BME280;60933;46.398;-63.798;2023-02-12T03:43:27;101806.94;;;-11.52;77.63
66703;BME280;60933;46.398;-63.798;2023-02-12T03:46:03;101813.03;;;-11.48;78.24
66703;BME280;60933;46.398;-63.798;2023-02-12T03:48:41;101813.19;;;-11.47;77.99
66703;BME280;60933;46.398;-63.798;2023-02-12T03:53:47;101820.53;;;-11.38;78.12
66703;BME280;60933;46.398;-63.798;2023-02-12T03:56:26;101813.31;;;-11.35;78.14
66703;BME280;60933;46.398;-63.798;2023-02-12T03:58:54;101804.47;;;-11.31;77.70
66703;BME280;60933;46.398;-63.798;2023-02-12T04:01:20;101813.78;;;-11.28;77.42
66703;BME280;60933;46.398;-63.798;2023-02-12T04:03:47;101807.19;;;-11.28;77.46
66703;BME280;60933;46.398;-63.798;2023-02-12T04:06:23;101803.81;;;-11.28;77.48
66703;BME280;60933;46.398;-63.798;2023-02-12T04:08:56;101798.09;;;-11.27;76.98
66703;BME280;60933;46.398;-63.798;2023-02-12T04:16:53;101801.56;;;-11.25;76.73
66703;BME280;60933;46.398;-63.798;2023-02-12T04:19:47;101789.63;;;-11.30;76.72
66703;BME280;60933;46.398;-63.798;2023-02-12T04:25:20;101801.34;;;-11.28;75.87
66703;BME280;60933;46.398;-63.798;2023-02-12T04:28:20;101793.13;;;-11.27;75.17
66703;BME280;60933;46.398;-63.798;2023-02-12T04:33:51;101784.63;;;-11.30;74.90
66703;BME280;60933;46.398;-63.798;2023-02-12T04:36:22;101804.94;;;-11.25;74.75
66703;BME280;60933;46.398;-63.798;2023-02-12T04:38:54;101796.72;;;-11.34;75.14
66703;BME280;60933;46.398;-63.798;2023-02-12T04:41:23;101818.03;;;-11.27;74.59
66703;BME280;60933;46.398;-63.798;2023-02-12T04:43:50;101808.69;;;-11.30;75.00
66703;BME280;60933;46.398;-63.798;2023-02-12T04:46:16;101811.31;;;-11.28;74.50
66703;BME280;60933;46.398;-63.798;2023-02-12T04:48:57;101805.44;;;-11.29;74.51
66703;BME280;60933;46.398;-63.798;2023-02-12T04:51:23;101816.28;;;-11.28;74.92
66703;BME280;60933;46.398;-63.798;2023-02-12T04:53:49;101809.81;;;-11.26;75.10
66703;BME280;60933;46.398;-63.798;2023-02-12T04:56:16;101813.66;;;-11.20;74.99
66703;BME280;60933;46.398;-63.798;2023-02-12T04:58:42;101814.78;;;-11.16;75.43
66703;BME280;60933;46.398;-63.798;2023-02-12T05:01:08;101807.56;;;-11.13;74.65
66703;BME280;60933;46.398;-63.798;2023-02-12T05:03:35;101786.59;;;-11.15;74.87
66703;BME280;60933;46.398;-63.798;2023-02-12T05:06:06;101811.28;;;-11.08;75.10
66703;BME280;60933;46.398;-63.798;2023-02-12T05:08:33;101810.16;;;-11.01;75.39
66703;BME280;60933;46.398;-63.798;2023-02-12T05:11:04;101818.88;;;-10.96;74.96
66703;BME280;60933;46.398;-63.798;2023-02-12T05:13:30;101821.84;;;-10.90;74.91
66703;BME280;60933;46.398;-63.798;2023-02-12T05:15:56;101805.00;;;-10.82;75.38
66703;BME280;60933;46.398;-63.798;2023-02-12T05:18:23;101816.19;;;-10.77;75.23
66703;BME280;60933;46.398;-63.798;2023-02-12T05:20:59;101812.44;;;-10.72;75.55
66703;BME280;60933;46.398;-63.798;2023-02-12T05:23:30;101806.69;;;-10.60;76.27
66703;BME280;60933;46.398;-63.798;2023-02-12T05:25:58;101809.53;;;-10.56;76.15
66703;BME280;60933;46.398;-63.798;2023-02-12T05:28:25;101795.88;;;-10.49;75.79
66703;BME280;60933;46.398;-63.798;2023-02-12T05:30:51;101801.84;;;-10.37;76.13
66703;BME280;60933;46.398;-63.798;2023-02-12T05:33:17;101796.63;;;-10.28;77.11
66703;BME280;60933;46.398;-63.798;2023-02-12T05:35:43;101795.59;;;-10.20;77.71
66703;BME280;60933;46.398;-63.798;2023-02-12T05:38:09;101794.81;;;-10.08;77.43
66703;BME280;60933;46.398;-63.798;2023-02-12T05:40:35;101789.38;;;-10.03;77.05
66703;BME280;60933;46.398;-63.798;2023-02-12T05:43:01;101798.69;;;-9.90;76.82
66703;BME280;60933;46.398;-63.798;2023-02-12T05:45:27;101799.25;;;-9.82;76.90
66703;BME280;60933;46.398;-63.798;2023-02-12T05:47:57;101794.72;;;-9.76;76.71
66703;BME280;60933;46.398;-63.798;2023-02-12T05:50:23;101792.22;;;-9.76;76.39
66703;BME280;60933;46.398;-63.798;2023-02-12T05:52:49;101802.38;;;-9.62;76.02
66703;BME280;60933;46.398;-63.798;2023-02-12T05:55:15;101794.47;;;-9.57;76.68
66703;BME280;60933;46.398;-63.798;2023-02-12T05:57:41;101797.28;;;-9.52;75.73
66703;BME280;60933;46.398;-63.798;2023-02-12T06:00:08;101803.50;;;-9.47;74.91
66703;BME280;60933;46.398;-63.798;2023-02-12T06:02:34;101803.72;;;-9.44;74.60
66703;BME280;60933;46.398;-63.798;2023-02-12T06:05:00;101791.00;;;-9.47;75.10
66703;BME280;60933;46.398;-63.798;2023-02-12T06:07:26;101785.78;;;-9.38;75.18
66703;BME280;60933;46.398;-63.798;2023-02-12T06:09:52;101776.78;;;-9.36;74.54
66703;BME280;60933;46.398;-63.798;2023-02-12T06:12:20;101784.28;;;-9.36;74.50
66703;BME280;60933;46.398;-63.798;2023-02-12T06:14:46;101783.09;;;-9.29;74.85
66703;BME280;60933;46.398;-63.798;2023-02-12T06:17:12;101768.53;;;-9.23;74.63
66703;BME280;60933;46.398;-63.798;2023-02-12T06:19:38;101765.28;;;-9.22;75.24
66703;BME280;60933;46.398;-63.798;2023-02-12T06:22:04;101763.75;;;-9.20;76.04
66703;BME280;60933;46.398;-63.798;2023-02-12T06:24:31;101752.88;;;-9.20;75.26
66703;BME280;60933;46.398;-63.798;2023-02-12T06:26:57;101742.22;;;-9.18;75.03
66703;BME280;60933;46.398;-63.798;2023-02-12T06:29:23;101729.69;;;-9.18;75.40
66703;BME280;60933;46.398;-63.798;2023-02-12T06:31:49;101719.59;;;-9.19;75.13
66703;BME280;60933;46.398;-63.798;2023-02-12T06:34:15;101725.69;;;-9.16;74.98
66703;BME280;60933;46.398;-63.798;2023-02-12T06:36:45;101720.69;;;-9.16;75.64
66703;BME280;60933;46.398;-63.798;2023-02-12T06:39:13;101715.69;;;-9.16;75.32
66703;BME280;60933;46.398;-63.798;2023-02-12T06:41:40;101709.16;;;-9.14;75.36
66703;BME280;60933;46.398;-63.798;2023-02-12T06:44:06;101708.19;;;-9.16;74.78
66703;BME280;60933;46.398;-63.798;2023-02-12T06:46:33;101707.84;;;-9.09;73.92
66703;BME280;60933;46.398;-63.798;2023-02-12T06:48:59;101715.56;;;-9.05;73.86
66703;BME280;60933;46.398;-63.798;2023-02-12T06:51:26;101723.19;;;-9.04;73.45
66703;BME280;60933;46.398;-63.798;2023-02-12T06:53:53;101735.03;;;-9.01;73.77
66703;BME280;60933;46.398;-63.798;2023-02-12T06:56:21;101731.44;;;-8.93;73.24
66703;BME280;60933;46.398;-63.798;2023-02-12T06:58:54;101728.69;;;-8.84;72.88
66703;BME280;60933;46.398;-63.798;2023-02-12T07:01:24;101708.25;;;-8.91;73.01
66703;BME280;60933;46.398;-63.798;2023-02-12T07:03:57;101710.88;;;-8.89;72.94
66703;BME280;60933;46.398;-63.798;2023-02-12T07:06:24;101700.22;;;-8.98;72.91
66703;BME280;60933;46.398;-63.798;2023-02-12T07:08:53;101715.34;;;-8.97;73.32
66703;BME280;60933;46.398;-63.798;2023-02-12T07:11:23;101714.03;;;-9.03;73.64
66703;BME280;60933;46.398;-63.798;2023-02-12T07:13:50;101725.25;;;-8.98;73.07
66703;BME280;60933;46.398;-63.798;2023-02-12T07:16:16;101710.78;;;-9.02;73.04
66703;BME280;60933;46.398;-63.798;2023-02-12T07:18:45;101703.94;;;-9.05;72.74
66703;BME280;60933;46.398;-63.798;2023-02-12T07:21:12;101695.34;;;-9.09;72.86
66703;BME280;60933;46.398;-63.798;2023-02-12T07:23:39;101685.44;;;-9.19;72.47
66703;BME280;60933;46.398;-63.798;2023-02-12T07:26:08;101691.97;;;-9.21;73.14
66703;BME280;60933;46.398;-63.798;2023-02-12T07:28:35;101693.06;;;-9.29;72.69
66703;BME280;60933;46.398;-63.798;2023-02-12T07:31:10;101675.66;;;-9.40;72.94
66703;BME280;60933;46.398;-63.798;2023-02-12T07:33:37;101678.16;;;-9.40;73.67
66703;BME280;60933;46.398;-63.798;2023-02-12T07:36:04;101678.47;;;-9.47;73.30
66703;BME280;60933;46.398;-63.798;2023-02-12T07:38:31;101662.28;;;-9.52;73.54
66703;BME280;60933;46.398;-63.798;2023-02-12T07:41:11;101651.22;;;-9.56;73.65
66703;BME280;60933;46.398;-63.798;2023-02-12T07:43:42;101637.72;;;-9.58;73.00
66703;BME280;60933;46.398;-63.798;2023-02-12T07:48:39;101620.78;;;-9.62;73.22
66703;BME280;60933;46.398;-63.798;2023-02-12T07:51:07;101616.31;;;-9.66;73.43
66703;BME280;60933;46.398;-63.798;2023-02-12T07:53:34;101613.06;;;-9.65;73.25
66703;BME280;60933;46.398;-63.798;2023-02-12T07:56:08;101605.47;;;-9.66;73.02
66703;BME280;60933;46.398;-63.798;2023-02-12T07:58:36;101604.47;;;-9.68;73.42
66703;BME280;60933;46.398;-63.798;2023-02-12T08:01:17;101601.88;;;-9.70;72.90
66703;BME280;60933;46.398;-63.798;2023-02-12T08:03:44;101586.66;;;-9.73;73.00
66703;BME280;60933;46.398;-63.798;2023-02-12T08:06:16;101580.78;;;-9.74;73.04
66703;BME280;60933;46.398;-63.798;2023-02-12T08:08:44;101576.56;;;-9.75;72.85
66703;BME280;60933;46.398;-63.798;2023-02-12T08:11:12;101561.56;;;-9.75;73.72
66703;BME280;60933;46.398;-63.798;2023-02-12T08:13:39;101558.31;;;-9.74;73.20
66703;BME280;60933;46.398;-63.798;2023-02-12T08:16:12;101545.69;;;-9.75;73.20
66703;BME280;60933;46.398;-63.798;2023-02-12T08:18:38;101528.94;;;-9.76;73.57
66703;BME280;60933;46.398;-63.798;2023-02-12T08:21:08;101530.34;;;-9.80;73.69
66703;BME280;60933;46.398;-63.798;2023-02-12T08:23:35;101526.03;;;-9.82;73.60
66703;BME280;60933;46.398;-63.798;2023-02-12T08:26:28;101540.69;;;-9.75;73.72
66703;BME280;60933;46.398;-63.798;2023-02-12T08:28:59;101528.84;;;-9.78;74.09
66703;BME280;60933;46.398;-63.798;2023-02-12T08:31:29;101538.31;;;-9.74;74.17
66703;BME280;60933;46.398;-63.798;2023-02-12T08:33:56;101535.59;;;-9.77;73.92
66703;BME280;60933;46.398;-63.798;2023-02-12T08:36:24;101533.31;;;-9.74;73.90
66703;BME280;60933;46.398;-63.798;2023-02-12T08:38:51;101535.03;;;-9.73;74.15
66703;BME280;60933;46.398;-63.798;2023-02-12T08:41:23;101523.09;;;-9.77;74.76
66703;BME280;60933;46.398;-63.798;2023-02-12T08:43:52;101523.31;;;-9.74;74.82
66703;BME280;60933;46.398;-63.798;2023-02-12T08:46:24;101517.44;;;-9.74;75.22
66703;BME280;60933;46.398;-63.798;2023-02-12T08:48:52;101515.03;;;-9.73;75.02
66703;BME280;60933;46.398;-63.798;2023-02-12T08:51:24;101502.88;;;-9.80;74.92
66703;BME280;60933;46.398;-63.798;2023-02-12T08:53:54;101503.31;;;-9.74;75.25
66703;BME280;60933;46.398;-63.798;2023-02-12T08:56:21;101499.28;;;-9.72;75.14
66703;BME280;60933;46.398;-63.798;2023-02-12T08:58:47;101491.03;;;-9.71;75.99
66703;BME280;60933;46.398;-63.798;2023-02-12T09:01:19;101479.50;;;-9.68;75.41
66703;BME280;60933;46.398;-63.798;2023-02-12T09:03:46;101468.94;;;-9.64;76.47
66703;BME280;60933;46.398;-63.798;2023-02-12T09:06:12;101470.16;;;-9.59;76.08
66703;BME280;60933;46.398;-63.798;2023-02-12T09:08:39;101450.16;;;-9.59;76.53
66703;BME280;60933;46.398;-63.798;2023-02-12T09:11:11;101448.06;;;-9.53;76.63
66703;BME280;60933;46.398;-63.798;2023-02-12T09:13:38;101442.72;;;-9.46;76.94
66703;BME280;60933;46.398;-63.798;2023-02-12T09:16:06;101439.09;;;-9.38;77.03
66703;BME280;60933;46.398;-63.798;2023-02-12T09:18:33;101419.59;;;-9.30;76.98
66703;BME280;60933;46.398;-63.798;2023-02-12T09:21:07;101420.78;;;-9.25;77.04
66703;BME280;60933;46.398;-63.798;2023-02-12T09:23:35;101439.56;;;-9.18;76.84
66703;BME280;60933;46.398;-63.798;2023-02-12T09:26:05;101427.25;;;-9.15;76.98
66703;BME280;60933;46.398;-63.798;2023-02-12T09:28:32;101400.72;;;-9.13;77.75
66703;BME280;60933;46.398;-63.798;2023-02-12T09:30:58;101408.44;;;-8.96;77.57
66703;BME280;60933;46.398;-63.798;2023-02-12T09:33:24;101390.59;;;-8.89;77.96
66703;BME280;60933;46.398;-63.798;2023-02-12T09:35:50;101405.09;;;-8.83;77.17
66703;BME280;60933;46.398;-63.798;2023-02-12T09:38:16;101402.91;;;-8.79;77.65
66703;BME280;60933;46.398;-63.798;2023-02-12T09:41:11;101394.94;;;-8.73;77.62
66703;BME280;60933;46.398;-63.798;2023-02-12T09:47:02;101390.81;;;-8.59;77.23
66703;BME280;60933;46.398;-63.798;2023-02-12T09:49:53;101372.97;;;-8.50;77.11
66703;BME280;60933;46.398;-63.798;2023-02-12T09:52:25;101375.16;;;-8.42;76.99
66703;BME280;60933;46.398;-63.798;2023-02-12T09:54:55;101375.63;;;-8.34;75.90
66703;BME280;60933;46.398;-63.798;2023-02-12T09:57:30;101370.81;;;-8.31;75.86
66703;BME280;60933;46.398;-63.798;2023-02-12T10:00:21;101364.34;;;-8.27;76.16
66703;BME280;60933;46.398;-63.798;2023-02-12T10:02:51;101365.41;;;-8.23;76.64
66703;BME280;60933;46.398;-63.798;2023-02-12T10:05:22;101361.34;;;-8.21;76.16
66703;BME280;60933;46.398;-63.798;2023-02-12T10:08:19;101363.19;;;-8.19;75.77
66703;BME280;60933;46.398;-63.798;2023-02-12T10:21:38;101318.28;;;-8.16;76.42
66703;BME280;60933;46.398;-63.798;2023-02-12T10:27:14;101318.47;;;-8.13;76.50
66703;BME280;60933;46.398;-63.798;2023-02-12T10:29:42;101310.97;;;-8.13;76.90
66703;BME280;60933;46.398;-63.798;2023-02-12T10:32:24;101293.22;;;-8.16;76.85
66703;BME280;60933;46.398;-63.798;2023-02-12T10:34:54;101298.59;;;-8.09;77.21
66703;BME280;60933;46.398;-63.798;2023-02-12T10:40:03;101292.06;;;-8.07;77.07
66703;BME280;60933;46.398;-63.798;2023-02-12T10:42:37;101288.78;;;-8.06;77.33
66703;BME280;60933;46.398;-63.798;2023-02-12T10:45:04;101276.94;;;-8.09;77.57
66703;BME280;60933;46.398;-63.798;2023-02-12T10:47:31;101277.72;;;-8.10;76.93
66703;BME280;60933;46.398;-63.798;2023-02-12T10:49:58;101285.78;;;-8.01;77.01
66703;BME280;60933;46.398;-63.798;2023-02-12T10:52:47;101282.59;;;-7.98;77.12
66703;BME280;60933;46.398;-63.798;2023-02-12T10:57:55;101265.91;;;-7.98;77.30
66703;BME280;60933;46.398;-63.798;2023-02-12T11:00:36;101267.03;;;-7.92;78.04
66703;BME280;60933;46.398;-63.798;2023-02-12T11:03:15;101265.56;;;-7.89;77.69
66703;BME280;60933;46.398;-63.798;2023-02-12T11:05:44;101269.09;;;-7.85;77.03
66703;BME280;60933;46.398;-63.798;2023-02-12T11:08:28;101261.78;;;-7.82;77.20
66703;BME280;60933;46.398;-63.798;2023-02-12T11:10:54;101261.84;;;-7.81;78.11
66703;BME280;60933;46.398;-63.798;2023-02-12T11:13:25;101262.91;;;-7.77;77.89
66703;BME280;60933;46.398;-63.798;2023-02-12T11:15:53;101268.19;;;-7.72;78.20
66703;BME280;60933;46.398;-63.798;2023-02-12T11:18:24;101260.16;;;-7.67;77.61
66703;BME280;60933;46.398;-63.798;2023-02-12T11:20:55;101258.78;;;-7.61;77.53
66703;BME280;60933;46.398;-63.798;2023-02-12T11:29:19;101251.69;;;-7.39;76.06
66703;BME280;60933;46.398;-63.798;2023-02-12T11:32:06;101239.59;;;-7.31;75.64
66703;BME280;60933;46.398;-63.798;2023-02-12T11:34:36;101249.25;;;-7.22;75.04
66703;BME280;60933;46.398;-63.798;2023-02-12T11:37:02;101246.22;;;-7.17;75.42
66703;BME280;60933;46.398;-63.798;2023-02-12T11:39:35;101254.03;;;-7.12;76.85
66703;BME280;60933;46.398;-63.798;2023-02-12T11:42:13;101258.59;;;-7.05;75.75
66703;BME280;60933;46.398;-63.798;2023-02-12T11:44:43;101256.41;;;-6.98;76.03
66703;BME280;60933;46.398;-63.798;2023-02-12T11:47:27;101248.53;;;-6.90;76.44
66703;BME280;60933;46.398;-63.798;2023-02-12T11:52:28;101257.13;;;-6.70;76.15
66703;BME280;60933;46.398;-63.798;2023-02-12T11:54:58;101252.84;;;-6.56;76.05
66703;BME280;60933;46.398;-63.798;2023-02-12T11:57:42;101275.16;;;-6.45;76.78
66703;BME280;60933;46.398;-63.798;2023-02-12T12:00:15;101258.22;;;-6.33;75.59
66703;BME280;60933;46.398;-63.798;2023-02-12T12:03:12;101255.16;;;-6.27;76.66
66703;BME280;60933;46.398;-63.798;2023-02-12T12:05:50;101268.28;;;-6.16;76.11
66703;BME280;60933;46.398;-63.798;2023-02-12T12:08:31;101249.91;;;-5.99;74.47
66703;BME280;60933;46.398;-63.798;2023-02-12T12:11:21;101243.41;;;-5.94;74.99
66703;BME280;60933;46.398;-63.798;2023-02-12T12:14:23;101252.75;;;-5.75;74.51
66703;BME280;60933;46.398;-63.798;2023-02-12T12:17:11;101242.38;;;-5.64;74.09
66703;BME280;60933;46.398;-63.798;2023-02-12T12:20:04;101244.28;;;-5.59;74.67
66703;BME280;60933;46.398;-63.798;2023-02-12T12:22:52;101234.56;;;-5.52;74.52
66703;BME280;60933;46.398;-63.798;2023-02-12T12:25:28;101233.97;;;-5.47;74.57
66703;BME280;60933;46.398;-63.798;2023-02-12T12:28:11;101237.38;;;-5.46;74.25
66703;BME280;60933;46.398;-63.798;2023-02-12T12:30:50;101231.84;;;-5.39;73.69
66703;BME280;60933;46.398;-63.798;2023-02-12T12:42:06;101232.91;;;-4.98;73.86
66703;BME280;60933;46.398;-63.798;2023-02-12T12:51:01;101230.72;;;-4.72;74.42
66703;BME280;60933;46.398;-63.798;2023-02-12T12:53:59;101226.13;;;-4.63;73.37
66703;BME280;60933;46.398;-63.798;2023-02-12T12:57:12;101225.44;;;-4.58;72.79
66703;BME280;60933;46.398;-63.798;2023-02-12T13:00:17;101228.13;;;-4.36;73.02
66703;BME280;60933;46.398;-63.798;2023-02-12T13:06:07;101242.84;;;-4.06;71.88
66703;BME280;60933;46.398;-63.798;2023-02-12T13:17:14;101238.09;;;-3.59;71.05
66703;BME280;60933;46.398;-63.798;2023-02-12T13:19:45;101240.91;;;-3.51;70.07
66703;BME280;60933;46.398;-63.798;2023-02-12T13:22:34;101235.44;;;-3.41;70.40
66703;BME280;60933;46.398;-63.798;2023-02-12T13:25:14;101248.31;;;-3.35;70.78
66703;BME280;60933;46.398;-63.798;2023-02-12T13:27:41;101241.16;;;-3.24;70.73
66703;BME280;60933;46.398;-63.798;2023-02-12T13:33:11;101247.69;;;-3.08;70.32
66703;BME280;60933;46.398;-63.798;2023-02-12T13:35:45;101254.72;;;-3.00;71.83
66703;BME280;60933;46.398;-63.798;2023-02-12T13:38:29;101240.81;;;-2.89;70.48
66703;BME280;60933;46.398;-63.798;2023-02-12T13:41:02;101242.19;;;-2.75;70.28
66703;BME280;60933;46.398;-63.798;2023-02-12T13:46:02;101246.44;;;-2.51;70.41
66703;BME280;60933;46.398;-63.798;2023-02-12T13:51:49;101230.09;;;-2.36;68.94
66703;BME280;60933;46.398;-63.798;2023-02-12T13:55:03;101232.28;;;-2.23;68.56
66703;BME280;60933;46.398;-63.798;2023-02-12T13:57:36;101228.41;;;-2.13;68.29
66703;BME280;60933;46.398;-63.798;2023-02-12T14:00:03;101243.19;;;-2.00;67.97
66703;BME280;60933;46.398;-63.798;2023-02-12T14:05:27;101250.31;;;-1.89;66.98
66703;BME280;60933;46.398;-63.798;2023-02-12T14:08:00;101255.78;;;-1.77;67.16
66703;BME280;60933;46.398;-63.798;2023-02-12T14:10:40;101256.84;;;-1.70;66.37
66703;BME280;60933;46.398;-63.798;2023-02-12T14:13:23;101268.84;;;-1.65;65.67
66703;BME280;60933;46.398;-63.798;2023-02-12T14:15:54;101251.34;;;-1.58;65.84
66703;BME280;60933;46.398;-63.798;2023-02-12T14:18:34;101249.97;;;-1.49;65.78
66703;BME280;60933;46.398;-63.798;2023-02-12T14:23:45;101255.72;;;-1.27;65.48
66703;BME280;60933;46.398;-63.798;2023-02-12T14:26:19;101250.84;;;-1.21;65.37
66703;BME280;60933;46.398;-63.798;2023-02-12T14:28:59;101250.09;;;-1.18;64.62
66703;BME280;60933;46.398;-63.798;2023-02-12T14:36:44;101266.03;;;-0.95;64.16
66703;BME280;60933;46.398;-63.798;2023-02-12T14:46:53;101254.50;;;-0.84;62.50
66703;BME280;60933;46.398;-63.798;2023-02-12T14:54:54;101274.44;;;-0.67;62.44
66703;BME280;60933;46.398;-63.798;2023-02-12T14:57:33;101269.56;;;-0.61;63.41
66703;BME280;60933;46.398;-63.798;2023-02-12T15:02:47;101269.81;;;-0.52;62.52